Time;durP1;ratioP1;P1;durP2;ratioP2;P2;SDS_P1;SDS_P2;PMS_P1;PMS_P2;Temp;Humidity;BMP_temperature;BMP_pressure;BME280_temperature;BME280_humidity;BME280_pressure;Samples;Min_cycle;Max_cycle;Signal;HPM_P1;HPM_P2
2023/10/30 00:02:57;;;;;;;42.22;29.02;;;;;;;;;;10063320;28;20076;-72
2023/10/30 00:07:49;;;;;;;46.95;30.23;;;;;;;;;;10063041;28;20050;-72
2023/10/30 00:12:41;;;;;;;50.45;30.30;;;;;;;;;;10063132;28;20057;-72
2023/10/30 00:17:33;;;;;;;38.35;28.20;;;;;;;;;;10068641;28;20053;-72
2023/10/30 00:22:25;;;;;;;38.33;28.67;;;;;;;;;;10069168;28;20046;-72
2023/10/30 00:27:17;;;;;;;41.03;29.08;;;;;;;;;;10069540;28;20080;-73
2023/10/30 00:32:09;;;;;;;39.95;28.85;;;;;;;;;;10069589;28;20085;-73
2023/10/30 00:37:01;;;;;;;43.35;31.38;;;;;;;;;;10069623;28;20049;-71
2023/10/30 00:41:53;;;;;;;40.78;27.95;;;;;;;;;;10069482;28;20464;-72
2023/10/30 00:46:45;;;;;;;35.55;26.88;;;;;;;;;;10056041;28;20425;-71
2023/10/30 00:51:39;;;;;;;36.20;24.67;;;;;;;;;;10056691;28;20423;-73
2023/10/30 00:56:31;;;;;;;53.63;25.15;;;;;;;;;;10068669;28;20045;-71
2023/10/30 01:01:25;;;;;;;31.30;22.30;;;;;;;;;;10068678;28;20103;-72
2023/10/30 01:06:17;;;;;;;36.05;25.65;;;;;;;;;;10068147;28;20379;-71
2023/10/30 01:11:09;;;;;;;35.33;26.38;;;;;;;;;;10067327;28;20368;-73
2023/10/30 01:16:01;;;;;;;52.55;31.23;;;;;;;;;;10067900;28;20045;-71
2023/10/30 01:20:53;;;;;;;42.80;31.13;;;;;;;;;;10051002;28;20379;-72
2023/10/30 01:25:46;;;;;;;44.10;30.90;;;;;;;;;;10083169;28;20756;-72
2023/10/30 01:30:39;;;;;;;49.58;33.40;;;;;;;;;;10067377;28;20050;-72
2023/10/30 01:35:31;;;;;;;50.13;34.40;;;;;;;;;;10067626;28;20053;-73
2023/10/30 01:40:23;;;;;;;46.33;30.65;;;;;;;;;;10064179;28;20156;-73
2023/10/30 01:45:18;;;;;;;61.60;36.15;;;;;;;;;;10028186;28;20050;-72
2023/10/30 01:50:14;;;;;;;60.97;35.35;;;;;;;;;;10045124;28;20053;-75
2023/10/30 01:55:06;;;;;;;57.75;33.50;;;;;;;;;;10044118;28;20096;-70
2023/10/30 01:59:58;;;;;;;61.00;32.22;;;;;;;;;;10028572;28;20046;-71
2023/10/30 02:04:50;;;;;;;47.95;31.23;;;;;;;;;;10027363;28;20054;-73
2023/10/30 02:09:42;;;;;;;48.25;28.25;;;;;;;;;;10028556;28;20100;-72
2023/10/30 02:14:34;;;;;;;43.25;26.77;;;;;;;;;;10045196;28;20096;-72
2023/10/30 02:19:27;;;;;;;38.83;23.95;;;;;;;;;;10028578;28;20050;-73
2023/10/30 02:24:19;;;;;;;47.40;27.35;;;;;;;;;;10028200;28;20132;-72
2023/10/30 02:29:11;;;;;;;46.40;28.30;;;;;;;;;;10026646;28;20048;-72
2023/10/30 02:34:03;;;;;;;29.45;24.58;;;;;;;;;;10043062;28;20449;-71
2023/10/30 02:38:55;;;;;;;39.40;25.02;;;;;;;;;;10042418;28;20104;-73
2023/10/30 02:43:47;;;;;;;24.88;21.75;;;;;;;;;;10026116;28;20042;-72
2023/10/30 02:48:40;;;;;;;35.55;22.30;;;;;;;;;;10027851;28;20080;-72
2023/10/30 02:53:32;;;;;;;32.45;21.50;;;;;;;;;;10043461;28;20091;-72
2023/10/30 02:58:25;;;;;;;33.83;21.00;;;;;;;;;;10025878;28;20157;-72
2023/10/30 03:03:17;;;;;;;23.95;19.40;;;;;;;;;;10042948;28;20045;-73
2023/10/30 03:08:09;;;;;;;25.05;19.75;;;;;;;;;;10027310;28;20042;-73
2023/10/30 03:13:01;;;;;;;38.30;24.95;;;;;;;;;;10026342;28;20045;-71
2023/10/30 03:17:53;;;;;;;31.92;23.90;;;;;;;;;;10027836;28;20050;-73
2023/10/30 03:22:45;;;;;;;38.25;23.50;;;;;;;;;;10026786;28;20053;-73
2023/10/30 03:27:36;;;;;;;36.90;26.40;;;;;;;;;;10027997;28;20472;-73
2023/10/30 03:32:29;;;;;;;66.00;30.58;;;;;;;;;;10041725;28;20034;-73
2023/10/30 03:37:21;;;;;;;64.93;30.95;;;;;;;;;;10027528;28;20030;-73
2023/10/30 03:42:13;;;;;;;61.55;30.15;;;;;;;;;;10025276;28;20464;-72
2023/10/30 03:47:05;;;;;;;47.85;29.42;;;;;;;;;;10026975;28;20046;-72
2023/10/30 03:51:56;;;;;;;65.88;34.50;;;;;;;;;;10031871;28;20057;-73
2023/10/30 03:56:48;;;;;;;65.25;36.03;;;;;;;;;;10033380;28;20061;-72
2023/10/30 04:01:40;;;;;;;89.18;37.80;;;;;;;;;;10033230;28;20049;-72
2023/10/30 04:06:32;;;;;;;72.05;35.90;;;;;;;;;;10034725;28;20104;-72
2023/10/30 04:11:24;;;;;;;83.65;36.42;;;;;;;;;;10033570;28;20460;-73
2023/10/30 04:16:16;;;;;;;123.45;39.00;;;;;;;;;;10053959;28;20106;-72
2023/10/30 04:21:08;;;;;;;81.35;40.00;;;;;;;;;;10038558;28;20050;-71
2023/10/30 04:26:00;;;;;;;72.40;39.22;;;;;;;;;;10032179;28;20049;-72
2023/10/30 04:30:52;;;;;;;104.85;39.30;;;;;;;;;;10035308;28;20046;-73
2023/10/30 04:35:44;;;;;;;89.50;42.05;;;;;;;;;;10032830;28;20163;-72
2023/10/30 04:40:36;;;;;;;74.75;37.33;;;;;;;;;;10032842;28;20476;-70
2023/10/30 04:45:28;;;;;;;90.50;39.55;;;;;;;;;;10032174;28;20050;-73
2023/10/30 04:50:20;;;;;;;86.75;42.30;;;;;;;;;;10052580;28;20512;-72
2023/10/30 04:55:11;;;;;;;104.70;41.30;;;;;;;;;;10050344;28;20076;-73
2023/10/30 05:00:05;;;;;;;97.32;40.65;;;;;;;;;;10031048;28;20116;-72
2023/10/30 05:04:57;;;;;;;88.90;40.83;;;;;;;;;;10030911;28;20081;-72
2023/10/30 05:09:49;;;;;;;101.78;43.50;;;;;;;;;;10030165;28;20370;-72
2023/10/30 05:14:41;;;;;;;73.43;37.55;;;;;;;;;;10065422;28;20054;-72
2023/10/30 05:19:33;;;;;;;92.53;43.20;;;;;;;;;;10065444;28;20124;-73
2023/10/30 05:24:25;;;;;;;115.43;45.33;;;;;;;;;;10064747;28;20049;-71
2023/10/30 05:29:17;;;;;;;101.68;44.17;;;;;;;;;;10064200;28;20103;-72
2023/10/30 05:34:09;;;;;;;108.78;50.55;;;;;;;;;;10065772;28;20045;-72
2023/10/30 05:39:01;;;;;;;125.03;49.47;;;;;;;;;;10067189;28;20045;-71
2023/10/30 05:43:53;;;;;;;128.18;49.38;;;;;;;;;;10065619;28;20128;-72
2023/10/30 05:48:45;;;;;;;123.72;47.67;;;;;;;;;;10066905;28;20049;-73
2023/10/30 05:53:37;;;;;;;130.23;54.05;;;;;;;;;;10067018;28;20063;-72
2023/10/30 05:58:29;;;;;;;111.80;50.40;;;;;;;;;;10066597;28;20045;-72
2023/10/30 06:03:21;;;;;;;109.10;49.05;;;;;;;;;;10065505;28;20046;-71
2023/10/30 06:08:13;;;;;;;92.65;40.28;;;;;;;;;;10065513;28;20045;-70
2023/10/30 06:13:08;;;;;;;88.60;44.95;;;;;;;;;;10063314;28;20049;-72
2023/10/30 06:18:04;;;;;;;76.07;37.38;;;;;;;;;;10064327;28;20439;-70
2023/10/30 06:22:57;;;;;;;69.55;39.47;;;;;;;;;;10058318;28;20746;-70
2023/10/30 06:27:49;;;;;;;63.25;39.15;;;;;;;;;;10066018;28;20046;-69
2023/10/30 06:32:41;;;;;;;69.07;40.88;;;;;;;;;;10064808;28;20041;-71
2023/10/30 06:37:33;;;;;;;96.28;45.28;;;;;;;;;;10066396;28;20049;-72
2023/10/30 06:42:25;;;;;;;113.43;41.22;;;;;;;;;;10065824;28;20057;-72
2023/10/30 06:47:17;;;;;;;111.88;46.10;;;;;;;;;;10064912;28;20041;-72
2023/10/30 06:52:10;;;;;;;74.25;43.10;;;;;;;;;;10065896;28;20128;-72
2023/10/30 06:57:01;;;;;;;108.07;44.78;;;;;;;;;;10058782;28;20069;-71
2023/10/30 07:01:53;;;;;;;101.85;44.80;;;;;;;;;;10064873;28;20057;-72
2023/10/30 07:06:45;;;;;;;111.10;47.58;;;;;;;;;;10064314;28;20049;-72
2023/10/30 07:11:39;;;;;;;87.15;50.50;;;;;;;;;;10064131;28;20128;-71
2023/10/30 07:16:32;;;;;;;130.70;52.63;;;;;;;;;;10072563;28;20045;-71
2023/10/30 07:21:28;;;;;;;120.25;38.05;;;;;;;;;;10064076;28;20045;-74
2023/10/30 07:26:21;;;;;;;60.40;24.58;;;;;;;;;;10070385;28;20108;-74
2023/10/30 07:31:13;;;;;;;35.30;25.58;;;;;;;;;;10072239;28;20042;-75
2023/10/30 07:36:05;;;;;;;34.30;24.80;;;;;;;;;;10072065;28;20060;-73
2023/10/30 07:40:57;;;;;;;29.95;23.30;;;;;;;;;;10072152;28;20041;-75
2023/10/30 07:45:50;;;;;;;30.45;22.05;;;;;;;;;;10071484;28;20073;-75
2023/10/30 07:50:45;;;;;;;27.83;23.60;;;;;;;;;;10071765;28;20525;-75
2023/10/30 07:55:38;;;;;;;28.48;23.80;;;;;;;;;;10067989;28;20067;-75
2023/10/30 08:00:30;;;;;;;32.47;26.25;;;;;;;;;;10045469;28;20534;-73
2023/10/30 08:05:40;;;;;;;35.20;23.75;;;;;;;;;;10030887;28;20057;-74
2023/10/30 08:10:32;;;;;;;39.72;27.33;;;;;;;;;;10030034;28;20073;-75
2023/10/30 08:15:24;;;;;;;41.25;27.73;;;;;;;;;;10030529;28;20476;-74
2023/10/30 08:20:16;;;;;;;38.05;29.65;;;;;;;;;;10037102;28;20042;-75
2023/10/30 08:25:08;;;;;;;36.95;29.45;;;;;;;;;;10030289;28;20054;-74
2023/10/30 08:30:00;;;;;;;40.42;30.80;;;;;;;;;;10032978;28;20095;-75
2023/10/30 08:34:54;;;;;;;54.83;33.20;;;;;;;;;;10031715;28;20049;-77
2023/10/30 08:39:46;;;;;;;46.50;32.50;;;;;;;;;;10031844;28;20096;-75
2023/10/30 08:44:39;;;;;;;40.45;29.48;;;;;;;;;;10036976;28;20067;-74
2023/10/30 08:49:32;;;;;;;38.67;31.10;;;;;;;;;;10034086;28;20082;-73
2023/10/30 08:54:24;;;;;;;39.22;30.15;;;;;;;;;;10046807;28;20476;-74
2023/10/30 08:59:17;;;;;;;44.42;30.02;;;;;;;;;;10032408;28;20057;-74
2023/10/30 09:04:10;;;;;;;33.50;25.33;;;;;;;;;;10031202;28;20057;-74
2023/10/30 09:09:02;;;;;;;37.50;28.50;;;;;;;;;;10031925;28;20566;-74
2023/10/30 09:13:54;;;;;;;34.28;25.80;;;;;;;;;;10031428;28;20045;-74
2023/10/30 09:18:47;;;;;;;37.20;24.40;;;;;;;;;;10037083;28;20049;-75
2023/10/30 09:23:42;;;;;;;35.88;24.00;;;;;;;;;;10031210;28;20042;-75
2023/10/30 09:28:34;;;;;;;29.02;22.33;;;;;;;;;;10031398;28;20042;-75
2023/10/30 09:33:26;;;;;;;22.42;18.50;;;;;;;;;;10029992;28;20181;-73
2023/10/30 09:38:18;;;;;;;24.63;19.83;;;;;;;;;;10030987;28;20065;-73
2023/10/30 09:43:10;;;;;;;21.30;17.08;;;;;;;;;;10037556;28;20057;-74
2023/10/30 09:48:06;;;;;;;20.77;18.35;;;;;;;;;;10037487;28;20137;-73
2023/10/30 09:52:59;;;;;;;25.23;18.73;;;;;;;;;;10030213;28;20096;-75
2023/10/30 09:57:52;;;;;;;20.67;18.55;;;;;;;;;;10045510;28;20060;-75
2023/10/30 10:02:44;;;;;;;21.77;17.27;;;;;;;;;;10045648;28;20052;-75
2023/10/30 10:07:36;;;;;;;27.33;21.98;;;;;;;;;;10030287;28;20077;-74
2023/10/30 10:12:30;;;;;;;30.33;25.77;;;;;;;;;;10028415;28;20068;-75
2023/10/30 10:17:22;;;;;;;34.67;27.45;;;;;;;;;;10034324;28;20487;-75
2023/10/30 10:22:28;;;;;;;41.55;37.13;;;;;;;;;;10042506;28;20073;-72
2023/10/30 10:27:23;;;;;;;35.60;31.90;;;;;;;;;;10030441;28;20145;-75
2023/10/30 10:32:15;;;;;;;27.38;24.55;;;;;;;;;;10028244;28;20077;-74
2023/10/30 10:37:16;;;;;;;23.90;19.45;;;;;;;;;;10028865;28;20534;-74
2023/10/30 10:42:08;;;;;;;27.60;21.45;;;;;;;;;;10027999;28;20066;-74
2023/10/30 10:47:00;;;;;;;36.33;25.73;;;;;;;;;;10050787;28;20046;-75
2023/10/30 10:51:53;;;;;;;30.13;22.50;;;;;;;;;;10029070;28;20053;-74
2023/10/30 10:56:46;;;;;;;42.10;31.02;;;;;;;;;;10042315;28;20479;-74
2023/10/30 11:01:40;;;;;;;38.30;29.80;;;;;;;;;;10025363;28;20042;-74
2023/10/30 11:06:37;;;;;;;41.92;31.15;;;;;;;;;;10027999;28;20555;-73
2023/10/30 11:11:33;;;;;;;43.60;32.63;;;;;;;;;;10043253;28;20049;-75
2023/10/30 11:16:50;;;;;;;54.92;36.55;;;;;;;;;;10029745;28;20053;-73
2023/10/30 11:21:42;;;;;;;50.50;34.83;;;;;;;;;;10024928;28;20050;-74
2023/10/30 11:26:44;;;;;;;56.97;34.63;;;;;;;;;;10042637;28;20064;-74
2023/10/30 11:32:05;;;;;;;40.72;28.20;;;;;;;;;;10027319;28;20045;-74
2023/10/30 11:37:07;;;;;;;40.17;27.42;;;;;;;;;;10043972;28;20046;-74
2023/10/30 11:42:00;;;;;;;30.08;23.90;;;;;;;;;;10026697;28;20050;-75
2023/10/30 11:46:53;;;;;;;33.88;22.02;;;;;;;;;;10027937;28;20460;-73
2023/10/30 11:51:46;;;;;;;41.33;25.92;;;;;;;;;;10026844;28;20038;-73
2023/10/30 11:56:38;;;;;;;43.20;25.42;;;;;;;;;;10027476;28;20081;-74
2023/10/30 12:01:32;;;;;;;43.00;28.45;;;;;;;;;;10027298;28;20057;-75
2023/10/30 12:06:28;;;;;;;40.05;27.05;;;;;;;;;;10027390;28;20089;-74
2023/10/30 12:11:19;;;;;;;36.50;27.83;;;;;;;;;;10028480;28;20053;-75
2023/10/30 12:16:12;;;;;;;42.35;31.58;;;;;;;;;;10032419;28;20392;-75
2023/10/30 12:21:05;;;;;;;43.35;31.45;;;;;;;;;;10034572;28;20057;-75
2023/10/30 12:26:06;;;;;;;39.03;28.25;;;;;;;;;;10033054;28;20057;-75
2023/10/30 12:30:58;;;;;;;44.58;30.00;;;;;;;;;;10049543;28;20060;-75
2023/10/30 12:35:56;;;;;;;46.92;29.48;;;;;;;;;;10033260;28;20387;-76
2023/10/30 12:40:48;;;;;;;53.55;31.63;;;;;;;;;;10032297;28;20349;-75
2023/10/30 12:45:40;;;;;;;48.13;29.35;;;;;;;;;;10032409;28;20073;-76
2023/10/30 12:50:32;;;;;;;39.28;29.63;;;;;;;;;;10036415;28;20053;-74
2023/10/30 12:55:24;;;;;;;52.65;30.73;;;;;;;;;;10031975;28;20140;-76
2023/10/30 13:00:16;;;;;;;54.03;28.67;;;;;;;;;;10035485;28;20100;-74
2023/10/30 13:05:08;;;;;;;42.45;29.05;;;;;;;;;;10065507;28;20530;-74
2023/10/30 13:10:00;;;;;;;51.90;31.52;;;;;;;;;;10068201;28;20060;-76
2023/10/30 13:14:53;;;;;;;48.88;33.00;;;;;;;;;;10067070;28;20107;-75
2023/10/30 13:19:45;;;;;;;58.70;37.90;;;;;;;;;;10069197;28;20038;-75
2023/10/30 13:24:37;;;;;;;68.68;38.83;;;;;;;;;;10068059;28;20038;-75
2023/10/30 13:29:30;;;;;;;77.90;44.10;;;;;;;;;;10066170;28;20434;-75
2023/10/30 13:34:21;;;;;;;81.47;45.75;;;;;;;;;;10068126;28;20048;-74
2023/10/30 13:39:15;;;;;;;67.32;43.30;;;;;;;;;;10067783;28;20057;-75
2023/10/30 13:44:07;;;;;;;80.43;45.85;;;;;;;;;;10067537;28;20060;-75
2023/10/30 13:48:59;;;;;;;84.00;48.40;;;;;;;;;;10066763;28;20085;-75
2023/10/30 13:53:53;;;;;;;84.25;49.20;;;;;;;;;;10066227;28;20052;-75
2023/10/30 13:58:48;;;;;;;81.45;49.42;;;;;;;;;;10065409;28;20046;-75
2023/10/30 14:03:40;;;;;;;77.28;47.15;;;;;;;;;;10067058;28;20419;-76
2023/10/30 14:08:33;;;;;;;86.35;49.97;;;;;;;;;;10066433;28;20045;-76
2023/10/30 14:13:25;;;;;;;71.70;44.75;;;;;;;;;;10059204;28;20423;-76
2023/10/30 14:18:17;;;;;;;62.40;35.15;;;;;;;;;;10066077;28;20045;-75
2023/10/30 14:23:08;;;;;;;51.72;27.90;;;;;;;;;;10066863;28;20049;-75
2023/10/30 14:28:00;;;;;;;33.65;21.55;;;;;;;;;;10036258;28;20049;-76
2023/10/30 14:32:52;;;;;;;39.38;20.92;;;;;;;;;;10046793;28;20055;-76
2023/10/30 14:37:44;;;;;;;33.95;18.70;;;;;;;;;;10035809;28;20122;-75
2023/10/30 14:42:36;;;;;;;47.13;25.52;;;;;;;;;;10031747;28;20111;-75
2023/10/30 14:47:28;;;;;;;37.00;23.13;;;;;;;;;;10034050;28;20053;-76
2023/10/30 14:52:20;;;;;;;38.45;23.35;;;;;;;;;;10031771;28;20103;-75
2023/10/30 14:57:14;;;;;;;41.22;25.75;;;;;;;;;;10041892;28;20045;-75
2023/10/30 15:02:08;;;;;;;57.85;39.65;;;;;;;;;;10034608;28;20045;-74
2023/10/30 15:06:59;;;;;;;41.13;24.02;;;;;;;;;;10044766;28;20488;-74
2023/10/30 15:11:52;;;;;;;32.38;10.45;;;;;;;;;;10038321;28;20049;-77
2023/10/30 15:16:44;;;;;;;21.75;9.30;;;;;;;;;;10041696;28;20379;-77
2023/10/30 15:21:36;;;;;;;19.80;9.68;;;;;;;;;;10042641;28;20163;-77
2023/10/30 15:26:28;;;;;;;10.68;7.20;;;;;;;;;;10034712;28;20049;-76
2023/10/30 15:31:23;;;;;;;19.90;7.05;;;;;;;;;;10053435;28;20041;-77
2023/10/30 15:36:14;;;;;;;21.95;10.25;;;;;;;;;;10027822;28;20388;-76
2023/10/30 15:41:06;;;;;;;11.93;4.68;;;;;;;;;;10030262;28;20273;-75
2023/10/30 15:45:58;;;;;;;12.32;7.68;;;;;;;;;;10039002;28;20762;-77
2023/10/30 15:50:50;;;;;;;16.42;7.63;;;;;;;;;;10036959;28;20057;-74
2023/10/30 15:55:42;;;;;;;12.13;6.25;;;;;;;;;;10035561;28;20042;-75
2023/10/30 16:00:39;;;;;;;14.43;7.20;;;;;;;;;;10034794;28;20034;-77
2023/10/30 16:05:31;;;;;;;11.32;7.22;;;;;;;;;;10057327;28;20395;-77
2023/10/30 16:10:43;;;;;;;10.35;6.57;;;;;;;;;;10041204;28;20448;-77
2023/10/30 16:15:35;;;;;;;16.25;5.72;;;;;;;;;;10069075;28;20375;-77
2023/10/30 16:20:27;;;;;;;13.52;6.07;;;;;;;;;;10067872;28;20049;-75
2023/10/30 16:25:22;;;;;;;11.68;6.22;;;;;;;;;;10068198;28;20041;-76
2023/10/30 16:30:15;;;;;;;22.10;7.97;;;;;;;;;;10067878;28;20107;-74
2023/10/30 16:35:08;;;;;;;9.20;5.28;;;;;;;;;;10067697;28;20081;-76
2023/10/30 16:39:59;;;;;;;16.02;5.65;;;;;;;;;;10066982;28;20046;-75
2023/10/30 16:44:53;;;;;;;9.52;5.93;;;;;;;;;;10069783;28;20092;-75
2023/10/30 16:49:45;;;;;;;11.13;5.43;;;;;;;;;;10060010;28;20057;-77
2023/10/30 16:54:38;;;;;;;10.45;4.90;;;;;;;;;;10065957;28;20498;-77
2023/10/30 16:59:30;;;;;;;14.35;5.13;;;;;;;;;;10067211;28;20353;-75
2023/10/30 17:04:22;;;;;;;12.95;4.95;;;;;;;;;;10065726;28;20053;-76
2023/10/30 17:09:13;;;;;;;8.88;4.85;;;;;;;;;;10064451;28;20523;-77
2023/10/30 17:14:05;;;;;;;14.60;4.82;;;;;;;;;;10064773;28;20037;-74
2023/10/30 17:18:57;;;;;;;16.95;6.03;;;;;;;;;;10065595;28;20048;-77
2023/10/30 17:23:49;;;;;;;10.55;5.45;;;;;;;;;;10068263;28;20475;-77
2023/10/30 17:28:41;;;;;;;14.98;5.80;;;;;;;;;;10068353;28;20364;-76
2023/10/30 17:33:33;;;;;;;15.30;6.85;;;;;;;;;;10064100;28;20060;-76
2023/10/30 17:38:25;;;;;;;11.07;6.40;;;;;;;;;;10059222;28;20471;-76
2023/10/30 17:43:17;;;;;;;17.73;7.72;;;;;;;;;;10058868;28;20439;-76
2023/10/30 17:48:10;;;;;;;15.48;9.40;;;;;;;;;;10031156;28;20100;-76
2023/10/30 17:53:02;;;;;;;19.48;13.75;;;;;;;;;;10037754;28;20050;-76
2023/10/30 17:57:54;;;;;;;21.67;13.32;;;;;;;;;;10028527;28;20050;-76
2023/10/30 18:02:46;;;;;;;13.43;6.85;;;;;;;;;;10028481;28;20473;-77
2023/10/30 18:07:37;;;;;;;18.02;7.50;;;;;;;;;;10030141;28;20057;-76
2023/10/30 18:12:29;;;;;;;16.50;9.82;;;;;;;;;;10029256;28;20052;-76
2023/10/30 18:17:21;;;;;;;19.42;11.82;;;;;;;;;;10029589;28;20045;-75
2023/10/30 18:22:13;;;;;;;20.85;8.77;;;;;;;;;;10028430;28;20049;-76
2023/10/30 18:27:05;;;;;;;21.23;9.38;;;;;;;;;;10033137;28;20045;-74
2023/10/30 18:31:57;;;;;;;14.55;6.60;;;;;;;;;;10034917;28;20144;-75
2023/10/30 18:36:49;;;;;;;18.20;8.35;;;;;;;;;;10066071;28;21462;-75
2023/10/30 18:41:41;;;;;;;24.58;11.93;;;;;;;;;;10061223;28;20052;-75
2023/10/30 18:46:33;;;;;;;20.77;11.13;;;;;;;;;;10065153;28;20056;-74
2023/10/30 18:51:25;;;;;;;15.35;7.40;;;;;;;;;;10065926;28;20100;-75
2023/10/30 18:56:17;;;;;;;19.70;8.45;;;;;;;;;;10065613;28;20061;-74
2023/10/30 19:01:09;;;;;;;20.40;8.32;;;;;;;;;;10034023;28;20052;-76
2023/10/30 19:06:04;;;;;;;11.10;6.47;;;;;;;;;;10028294;28;20093;-76
2023/10/30 19:10:56;;;;;;;13.20;6.53;;;;;;;;;;10028496;28;20108;-74
2023/10/30 19:15:48;;;;;;;12.18;7.32;;;;;;;;;;10052047;28;20480;-76
2023/10/30 19:20:40;;;;;;;22.20;7.15;;;;;;;;;;10065501;28;20145;-75
2023/10/30 19:25:32;;;;;;;21.35;8.98;;;;;;;;;;10066550;28;20045;-75
2023/10/30 19:30:24;;;;;;;26.00;12.23;;;;;;;;;;10071517;28;20061;-76
2023/10/30 19:35:16;;;;;;;20.48;8.50;;;;;;;;;;10058201;28;20554;-76
2023/10/30 19:40:09;;;;;;;16.08;7.82;;;;;;;;;;10071215;28;20487;-74
2023/10/30 19:45:01;;;;;;;22.13;6.22;;;;;;;;;;10070049;28;20476;-73
2023/10/30 19:49:53;;;;;;;9.65;4.22;;;;;;;;;;10071128;28;20076;-71
2023/10/30 19:54:45;;;;;;;19.83;3.30;;;;;;;;;;10071267;28;20041;-70
2023/10/30 19:59:37;;;;;;;10.10;3.28;;;;;;;;;;10052592;28;20050;-69
2023/10/30 20:04:29;;;;;;;8.02;3.22;;;;;;;;;;10052619;28;20129;-68
2023/10/30 20:09:21;;;;;;;4.78;2.22;;;;;;;;;;10058421;28;20045;-70
2023/10/30 20:14:33;;;;;;;4.53;1.90;;;;;;;;;;10061840;28;20045;-72
2023/10/30 20:19:25;;;;;;;5.18;2.50;;;;;;;;;;10063745;28;20041;-73
2023/10/30 20:24:17;;;;;;;6.55;3.35;;;;;;;;;;10063797;28;20073;-72
2023/10/30 20:29:10;;;;;;;16.13;4.43;;;;;;;;;;10063358;28;20054;-70
2023/10/30 20:34:02;;;;;;;4.93;2.05;;;;;;;;;;10085128;28;20577;-70
2023/10/30 20:38:54;;;;;;;2.40;1.90;;;;;;;;;;10073449;28;20095;-72
2023/10/30 20:43:46;;;;;;;5.13;2.03;;;;;;;;;;10069426;28;20073;-72
2023/10/30 20:48:39;;;;;;;3.30;2.28;;;;;;;;;;10067192;28;20053;-75
2023/10/30 20:53:31;;;;;;;7.32;2.28;;;;;;;;;;10066580;28;20404;-75
2023/10/30 20:58:23;;;;;;;4.30;2.00;;;;;;;;;;10044898;28;20044;-75
2023/10/30 21:03:16;;;;;;;4.75;1.90;;;;;;;;;;10065693;28;20522;-72
2023/10/30 21:08:08;;;;;;;3.85;2.33;;;;;;;;;;10064062;28;20057;-71
2023/10/30 21:13:00;;;;;;;7.68;2.65;;;;;;;;;;10059978;28;20467;-70
2023/10/30 21:17:52;;;;;;;7.03;3.28;;;;;;;;;;10069071;28;20053;-69
2023/10/30 21:22:44;;;;;;;10.70;5.82;;;;;;;;;;10068551;28;20357;-70
2023/10/30 21:27:37;;;;;;;10.63;5.28;;;;;;;;;;10057040;28;20049;-71
2023/10/30 21:32:28;;;;;;;5.35;3.30;;;;;;;;;;10055353;28;20046;-72
2023/10/30 21:37:21;;;;;;;7.90;3.95;;;;;;;;;;10063042;28;20053;-71
2023/10/30 21:42:13;;;;;;;10.40;3.28;;;;;;;;;;10038601;28;20980;-71
2023/10/30 21:47:05;;;;;;;16.10;8.65;;;;;;;;;;10059214;28;20033;-71
2023/10/30 21:51:57;;;;;;;17.33;11.07;;;;;;;;;;10063597;28;20045;-71
2023/10/30 21:56:49;;;;;;;18.85;13.40;;;;;;;;;;10064050;28;20049;-73
2023/10/30 22:01:41;;;;;;;15.25;12.52;;;;;;;;;;10059865;28;20080;-71
2023/10/30 22:06:33;;;;;;;22.65;12.45;;;;;;;;;;10062626;28;20940;-72
2023/10/30 22:11:25;;;;;;;14.77;9.07;;;;;;;;;;10061526;28;20141;-72
2023/10/30 22:16:17;;;;;;;11.93;9.18;;;;;;;;;;10063304;28;20084;-69
2023/10/30 22:21:09;;;;;;;6.25;4.63;;;;;;;;;;10063436;28;20041;-73
2023/10/30 22:26:01;;;;;;;2.58;1.77;;;;;;;;;;10063072;28;20044;-74
2023/10/30 22:30:53;;;;;;;3.25;1.85;;;;;;;;;;10065249;28;20037;-70
2023/10/30 22:35:45;;;;;;;5.22;1.77;;;;;;;;;;10060031;28;20046;-70
2023/10/30 22:40:37;;;;;;;4.63;2.22;;;;;;;;;;10030503;28;20034;-72
2023/10/30 22:45:29;;;;;;;7.57;2.28;;;;;;;;;;10029309;28;20049;-71
2023/10/30 22:50:21;;;;;;;5.13;2.42;;;;;;;;;;10028264;28;20149;-72
2023/10/30 22:55:13;;;;;;;5.70;2.05;;;;;;;;;;10027977;28;20062;-71
2023/10/30 23:00:13;;;;;;;4.43;1.85;;;;;;;;;;10029308;28;20133;-74
2023/10/30 23:05:05;;;;;;;3.45;2.22;;;;;;;;;;10041117;28;20045;-73
2023/10/30 23:09:58;;;;;;;2.83;1.80;;;;;;;;;;10029218;28;20056;-72
2023/10/30 23:14:50;;;;;;;4.25;1.67;;;;;;;;;;10028313;28;20038;-72
2023/10/30 23:19:42;;;;;;;4.25;1.75;;;;;;;;;;10028893;28;20349;-71
2023/10/30 23:24:35;;;;;;;2.00;1.80;;;;;;;;;;10042971;28;20046;-72
2023/10/30 23:29:27;;;;;;;4.53;2.05;;;;;;;;;;10028001;28;20089;-72
2023/10/30 23:34:18;;;;;;;6.63;1.92;;;;;;;;;;10026515;28;20042;-72
2023/10/30 23:39:10;;;;;;;2.08;1.70;;;;;;;;;;10028712;28;20057;-71
2023/10/30 23:44:02;;;;;;;4.10;2.08;;;;;;;;;;10027944;28;20042;-72
2023/10/30 23:48:55;;;;;;;6.80;1.80;;;;;;;;;;10027928;28;20049;-71
2023/10/30 23:53:46;;;;;;;3.83;1.85;;;;;;;;;;10027922;28;20038;-72
2023/10/30 23:58:38;;;;;;;2.03;1.75;;;;;;;;;;10028282;28;20068;-72
